Flight Track Log - Related Links

Times and Time Zones

All times are in EDT time to prevent confusion due to time zone crossing. See the ASQ6151 flight status page for this flight to view local times or setup timezone preferences in your user account.

Time Position Orientation Groundspeed Altitude Reporting Facility
EDT Latitude Longitude Course Direction KTS MPH feet Rate Location/Type
Tue 06:04:28 PM 32.1964 -81.1617 North 217 250 3,400  Level Jacksonville Center
Tue 06:05:28 PM 32.2653 -81.1581 North 240 276 5,300 2,150 Climbing Jacksonville Center
Tue 06:06:28 PM 32.3361 -81.1542 North 245 282 7,700 2,100 Climbing Jacksonville Center
Tue 06:07:28 PM 32.3989 -81.1506 North 250 288 9,500 1,400 Climbing Jacksonville Center
Tue 06:08:28 PM 32.4822 -81.1467 North 261 300 10,500 950 Climbing Jacksonville Center
Tue 06:09:00 PM 32.6186 -81.1500 North  Level FlightAware Approximate
Tue 06:09:28 PM 32.5614 -81.1400 North 298 343 11,400  Level Jacksonville Center
Tue 06:10:28 PM 32.6617 -81.1356 North 310 357 12,800 1,250 Climbing Jacksonville Center
Tue 06:11:28 PM 32.7450 -81.1267 North 320 368 13,900 1,050 Climbing Jacksonville Center
Tue 06:12:28 PM 32.8367 -81.1200 North 325 374 14,900 950 Climbing Jacksonville Center
Tue 06:13:28 PM 32.9306 -81.1156 North 330 380 15,800 950 Climbing Jacksonville Center
Tue 06:14:28 PM 33.0286 -81.1086 North 335 386 16,800 950 Climbing Jacksonville Center
Tue 06:15:28 PM 33.1225 -81.1042 North 335 386 17,700 850 Climbing Jacksonville Center
Tue 06:16:28 PM 33.2183 -81.0975 North 340 391 18,500 900 Climbing Jacksonville Center
Tue 06:17:28 PM 33.3186 -81.0931 North 350 403 19,500 1,000 Climbing Jacksonville Center
Tue 06:18:28 PM 33.4167 -81.0858 North 350 403 20,500 950 Climbing Jacksonville Center
Tue 06:19:28 PM 33.5250 -81.0789 North 350 403 21,400 950 Climbing Jacksonville Center
Tue 06:20:28 PM 33.6269 -81.0692 North 350 403 22,400 1,000 Climbing Jacksonville Center
Tue 06:21:28 PM 33.7231 -81.0647 North 345 397 23,400 950 Climbing Jacksonville Center
Tue 06:22:28 PM 33.8125 -81.0578 North 345 397 24,300 900 Climbing Jacksonville Center
Tue 06:23:28 PM 33.9089 -81.0733 352° North 351 404 25,200 1,050 Climbing Jacksonville Center
Tue 06:24:28 PM 34.0139 -81.1164 341° North 344 396 26,400 1,050 Climbing Jacksonville Center
Tue 06:25:28 PM 34.1083 -81.1569 340° North 349 402 27,300 950 Climbing Jacksonville Center
Tue 06:26:28 PM 34.1983 -81.1928 342° North 349 402 28,300 952 Climbing Jacksonville Center
Tue 06:28:56 PM 34.4208 -81.2914 340° North 337 388 30,600 923 Climbing Atlanta Center
Tue 06:29:56 PM 34.5008 -81.3142 347° North 337 388 31,500 900 Climbing Atlanta Center
Tue 06:30:56 PM 34.5956 -81.3564 340° North 342 394 32,400 1,000 Climbing Atlanta Center
Tue 06:31:56 PM 34.6947 -81.3989 341° North 348 400 33,500 1,000 Climbing Atlanta Center
Tue 06:32:56 PM 34.7831 -81.4364 341° North 348 400 34,400 950 Climbing Atlanta Center
Tue 06:33:56 PM 34.8675 -81.4819 336° Northwest 336 387 35,400 800 Climbing Atlanta Center
Tue 06:34:56 PM 34.9372 -81.5306 330° Northwest 331 381 36,000 300 Climbing Atlanta Center
Tue 06:35:56 PM 35.0200 -81.5889 330° Northwest 331 381 36,000  Level Atlanta Center
Tue 06:36:56 PM 35.1025 -81.6447 331° Northwest 341 392 36,000  Level Atlanta Center
Tue 06:37:56 PM 35.1911 -81.7083 330° Northwest 353 406 36,000  Level Atlanta Center
Tue 06:38:56 PM 35.2864 -81.7794 329° Northwest 366 421 36,000  Level Atlanta Center
Tue 06:39:56 PM 35.3794 -81.8456 330° Northwest 373 429 36,000  Level Atlanta Center
Tue 06:40:56 PM 35.4725 -81.9144 329° Northwest 383 441 36,000  Level Atlanta Center
Tue 06:41:56 PM 35.5694 -81.9808 331° Northwest 394 453 36,000  Level Atlanta Center
Tue 06:42:56 PM 35.6689 -82.0500 331° Northwest 399 459 36,000  Level Atlanta Center
Tue 06:43:56 PM 35.7636 -82.1194 329° Northwest 399 459 36,000  Level Atlanta Center
Tue 06:44:56 PM 35.8586 -82.1889 329° Northwest 399 459 36,000  Level Atlanta Center
Tue 06:45:56 PM 35.9431 -82.2486 330° Northwest 393 452 36,000  Level Atlanta Center
Tue 06:46:56 PM 36.0378 -82.3183 329° Northwest 393 452 36,000  Level Atlanta Center
Tue 06:47:56 PM 36.1306 -82.3858 330° Northwest 393 452 36,000  Level Atlanta Center
Tue 06:48:56 PM 36.2339 -82.4608 330° Northwest 393 452 36,000  Level Atlanta Center
Tue 06:49:56 PM 36.3244 -82.5311 328° Northwest 393 452 36,000  Level Atlanta Center
Tue 06:50:56 PM 36.4169 -82.5992 329° Northwest 393 452 36,000  Level Atlanta Center
Tue 06:53:25 PM 36.6450 -82.7661 330° Northwest 389 448 36,000  Level Indianapolis Center
Tue 06:54:27 PM 36.7378 -82.8358 329° Northwest 389 448 36,000  Level Indianapolis Center
Tue 06:55:30 PM 36.8292 -82.9050 329° Northwest 389 448 36,000  Level Indianapolis Center
Tue 06:56:32 PM 36.9319 -82.9822 329° Northwest 396 456 36,000  Level Indianapolis Center
Tue 06:57:34 PM 37.0283 -83.0556 329° Northwest 401 461 36,000  Level Indianapolis Center
Tue 06:58:36 PM 37.1214 -83.1250 329° Northwest 391 450 36,000  Level Indianapolis Center
Tue 06:59:38 PM 37.2297 -83.2069 329° Northwest 389 448 36,000  Level Indianapolis Center
Tue 07:00:40 PM 37.3225 -83.2772 329° Northwest 388 447 36,000  Level Indianapolis Center
Tue 07:01:42 PM 37.4150 -83.3478 329° Northwest 387 445 36,000  Level Indianapolis Center
Tue 07:02:44 PM 37.5078 -83.4181 329° Northwest 390 449 36,000  Level Indianapolis Center
Tue 07:03:46 PM 37.6000 -83.4894 328° Northwest 388 447 36,000  Level Indianapolis Center
Tue 07:04:48 PM 37.6928 -83.5611 329° Northwest 390 449 36,000  Level Indianapolis Center
Tue 07:05:50 PM 37.8006 -83.6444 329° Northwest 388 447 36,000  Level Indianapolis Center
Tue 07:06:52 PM 37.8942 -83.7144 329° Northwest 389 448 36,000  Level Indianapolis Center
Tue 07:07:54 PM 37.9914 -83.7733 334° Northwest 388 447 36,000  Level Indianapolis Center
Tue 07:08:56 PM 38.0928 -83.8186 341° North 387 445 36,000  Level Indianapolis Center
Tue 07:09:58 PM 38.1944 -83.8661 340° North 388 447 36,000  Level Indianapolis Center
Tue 07:11:00 PM 38.3131 -83.9200 340° North 388 447 36,000  Level Indianapolis Center
Tue 07:12:02 PM 38.4150 -83.9667 340° North 389 448 36,000  Level Indianapolis Center
Tue 07:13:04 PM 38.5153 -84.0131 340° North 385 443 36,000  Level Indianapolis Center
Tue 07:14:06 PM 38.6172 -84.0597 340° North 386 444 36,000  Level Indianapolis Center
Tue 07:15:08 PM 38.7297 -84.1119 340° North 386 444 36,000  Level Indianapolis Center
Tue 07:16:11 PM 38.8325 -84.1597 340° North 389 448 36,000  Level Indianapolis Center
Tue 07:17:13 PM 38.9356 -84.2069 340° North 389 448 36,000  Level Indianapolis Center
Tue 07:18:15 PM 39.0392 -84.2569 339° North 391 450 36,000  Level Indianapolis Center
Tue 07:19:17 PM 39.1431 -84.3044 340° North 392 451 36,000  Level Indianapolis Center
Tue 07:20:19 PM 39.2461 -84.3539 340° North 392 451 36,000  Level Indianapolis Center
Tue 07:21:21 PM 39.3508 -84.4022 340° North 393 452 36,000 -48 Level Indianapolis Center
Tue 07:22:23 PM 39.4539 -84.4511 340° North 391 450 35,900  Descending Indianapolis Center
Tue 07:23:25 PM 39.5742 -84.5075 340° North 388 447 36,000 48 Climbing Indianapolis Center
Tue 07:24:27 PM 39.6772 -84.5567 340° North 390 449 36,000  Level Indianapolis Center
Tue 07:25:29 PM 39.7792 -84.6056 340° North 387 445 36,000  Level Indianapolis Center
Tue 07:26:31 PM 39.8803 -84.6531 340° North 383 441 36,000  Level Indianapolis Center
Tue 07:27:33 PM 39.9814 -84.7019 340° North 383 441 36,000 -97 Level Indianapolis Center
Tue 07:28:35 PM 40.0844 -84.7511 340° North 387 445 35,800 -629 Descending Indianapolis Center
Tue 07:29:37 PM 40.1889 -84.8006 340° North 392 451 34,700 -871 Descending Indianapolis Center
Tue 07:30:39 PM 40.2931 -84.8503 340° North 396 456 34,000 -339 Descending Indianapolis Center
Tue 07:31:41 PM 40.3881 -84.8978 339° North 367 422 34,000  Level Indianapolis Center
Tue 07:32:43 PM 40.4861 -84.9453 340° North 362 417 34,000  Level Indianapolis Center
Tue 07:33:45 PM 40.5817 -84.9925 339° North 369 425 34,000  Level Indianapolis Center
Tue 07:34:36 PM 40.6739 -85.0356 341° North 367 422 34,000 -637 Level Chicago Center
Tue 07:35:38 PM 40.7711 -85.0844 339° North 371 427 32,800 -1,306 Descending Chicago Center
Tue 07:36:40 PM 40.8700 -85.1392 337° Northwest 383 441 31,300 -871 Descending Chicago Center
Tue 07:37:42 PM 40.9614 -85.2133 329° Northwest 386 444 31,000 -145 Descending Chicago Center
Tue 07:38:44 PM 41.0242 -85.3222 307° West 389 448 31,000  Level Chicago Center
Tue 07:39:46 PM 41.0797 -85.4775 295° West 389 448 31,000 -339 Level Chicago Center
Tue 07:40:48 PM 41.1272 -85.6056 296° West 386 444 30,300 -1,500 Descending Chicago Center
Tue 07:41:50 PM 41.1753 -85.7389 296° West 398 458 27,900 -2,226 Descending Chicago Center
Tue 07:42:52 PM 41.2253 -85.8739 296° West 405 466 25,700 -1,403 Descending Chicago Center
Tue 07:43:54 PM 41.2731 -86.0061 296° West 398 458 25,000 -339 Descending Chicago Center
Tue 07:44:56 PM 41.3103 -86.1447 290° West 400 460 25,000 -145 Level Chicago Center
Tue 07:45:58 PM 41.3461 -86.2867 289° West 403 464 24,700 -1,306 Descending Chicago Center
Tue 07:47:00 PM 41.3886 -86.4558 289° West 403 464 22,300 -2,129 Descending Chicago Center
Tue 07:48:02 PM 41.4228 -86.5950 288° West 400 460 20,300 -1,935 Descending Chicago Center
Tue 07:49:04 PM 41.4558 -86.7228 289° West 379 436 18,300 -1,984 Descending Chicago Center
Tue 07:50:06 PM 41.4853 -86.8472 288° West 357 411 16,200 -2,032 Descending Chicago Center
Tue 07:51:08 PM 41.5164 -86.9731 288° West 351 404 14,100 -1,935 Descending Chicago Center
Tue 07:52:10 PM 41.5511 -87.1119 289° West 343 395 12,200 -1,260 Descending Chicago Center
Tue 07:52:48 PM 41.5667 -87.1833 286° West 325 374 12,000 -122 Descending Chicago TRACON
Tue 07:53:48 PM 41.6167 -87.2833 304° West 331 381 12,000  Level Chicago TRACON
Tue 07:54:14 PM 41.6308 -87.3250 294° West 331 381 12,000  Level Chicago Center
Tue 07:55:16 PM 41.6894 -87.4208 309° West 336 387 12,000 -532 Level Chicago Center
Tue 07:56:18 PM 41.7569 -87.5372 308° West 334 384 10,900 -912 Descending Chicago Center
Tue 07:57:21 PM 41.7933 -87.6269 299° West 283 326 10,100 -1,121 Descending Chicago Center
Tue 07:57:49 PM 41.8167 -87.6667 308° West 248 285 9,200 -1,683 Descending Chicago TRACON
Tue 07:58:43 PM 41.8333 -87.7333 289° West 232 267 7,800 -1,158 Descending Chicago TRACON
Tue 07:59:43 PM 41.8667 -87.8167 298° West 247 284 7,000 -400 Descending Chicago TRACON
Tue 08:00:43 PM 41.8833 -87.9000 285° West 248 285 7,000 -48 Level Chicago TRACON
Tue 08:01:49 PM 41.9000 -88.0000 283° West 209 241 6,900 -714 Descending Chicago TRACON
Tue 08:02:49 PM 41.9000 -88.0667 270° West 210 242 5,500 -1,650 Descending Chicago TRACON
Tue 08:03:49 PM 41.9500 -88.1167 323° Northwest 252 290 3,600 -1,513 Descending Chicago TRACON
Tue 08:04:44 PM 41.9667 -88.0500 71° East 202 232 2,600 -992 Descending Chicago TRACON
Tue 08:05:50 PM 41.9667 -87.9833 90° East 145 167 1,600 -800 Descending Chicago TRACON
Tue 08:06:44 PM 41.9667 -87.9500 90° East 132 152 1,000 -667 Descending Chicago TRACON
Tue 08:08:00 PM 41.9667 -87.9000 56° Northeast  Level FlightAware Approximate

Login

Don't have an account? Register now (free) for customized features, flight alerts, and more!